Time;durP1;ratioP1;P1;durP2;ratioP2;P2;SDS_P1;SDS_P2;PMS_P1;PMS_P2;Temp;Humidity;BMP_temperature;BMP_pressure;BME280_temperature;BME280_humidity;BME280_pressure;Samples;Min_cycle;Max_cycle;Signal;HPM_P1;HPM_P2
2021/11/01 00:02:48;;;;;;;21.05;15.65;;;;;;;;;;5036698;28;20048;-74
2021/11/01 00:05:34;;;;;;;21.85;16.08;;;;;;;;;;5679203;23;20025;-77
2021/11/01 00:08:00;;;;;;;20.25;15.70;;;;;;;;;;5038750;28;20029;-74
2021/11/01 00:10:28;;;;;;;19.48;15.23;;;;;;;;;;5039397;28;20034;-74
2021/11/01 00:18:06;;;;;;;22.00;16.10;;;;;;;;;;5360824;23;20059;-73
2021/11/01 00:20:32;;;;;;;22.77;15.82;;;;;;;;;;5039519;28;20006;-74
2021/11/01 00:22:59;;;;;;;24.40;16.15;;;;;;;;;;5015956;28;20006;-73
2021/11/01 00:25:27;;;;;;;22.52;15.93;;;;;;;;;;5019064;28;20030;-74
2021/11/01 00:33:05;;;;;;;22.95;16.55;;;;;;;;;;5275468;23;20085;-73
2021/11/01 00:35:31;;;;;;;20.88;15.85;;;;;;;;;;5019470;28;20022;-74
2021/11/01 00:37:57;;;;;;;28.92;16.80;;;;;;;;;;5018996;28;20027;-74
2021/11/01 00:40:23;;;;;;;21.35;15.90;;;;;;;;;;5019512;28;20014;-73
2021/11/01 00:42:49;;;;;;;22.60;15.25;;;;;;;;;;5011159;28;20011;-73
2021/11/01 00:45:17;;;;;;;23.90;16.73;;;;;;;;;;5002675;28;20034;-73
2021/11/01 00:47:43;;;;;;;23.10;15.52;;;;;;;;;;5019364;28;20014;-74
2021/11/01 00:52:45;;;;;;;23.05;15.82;;;;;;;;;;5541164;23;20042;-73
2021/11/01 00:55:21;;;;;;;22.17;15.85;;;;;;;;;;5038892;28;20057;-73
2021/11/01 00:57:53;;;;;;;22.20;14.90;;;;;;;;;;5003045;28;20078;-74
2021/11/01 01:00:19;;;;;;;25.17;16.88;;;;;;;;;;5019067;28;20305;-75
2021/11/01 01:02:46;;;;;;;24.02;16.20;;;;;;;;;;5019125;28;20019;-74
2021/11/01 01:05:12;;;;;;;24.15;16.73;;;;;;;;;;5019218;28;20014;-75
2021/11/01 01:07:38;;;;;;;24.75;16.58;;;;;;;;;;5027708;28;20010;-74
2021/11/01 01:10:07;;;;;;;23.48;16.42;;;;;;;;;;5019822;28;20041;-73
2021/11/01 01:12:34;;;;;;;23.90;16.83;;;;;;;;;;5026491;28;20014;-74
2021/11/01 01:15:04;;;;;;;22.38;16.35;;;;;;;;;;5002721;28;20041;-73
2021/11/01 01:17:37;;;;;;;20.42;16.08;;;;;;;;;;5022191;28;20014;-74
2021/11/01 01:27:51;;;;;;;25.45;16.95;;;;;;;;;;5706419;23;20030;-74
2021/11/01 01:30:18;;;;;;;26.95;17.70;;;;;;;;;;5038505;28;20010;-74
2021/11/01 01:32:45;;;;;;;23.30;16.60;;;;;;;;;;5030183;28;20076;-73
2021/11/01 01:35:12;;;;;;;23.08;16.95;;;;;;;;;;5027296;28;20057;-74
2021/11/01 01:37:38;;;;;;;24.15;16.40;;;;;;;;;;5011151;28;20030;-73
2021/11/01 01:40:06;;;;;;;22.45;15.55;;;;;;;;;;5042253;28;20044;-74
2021/11/01 01:45:38;;;;;;;22.88;16.88;;;;;;;;;;5021414;28;20109;-75
2021/11/01 01:53:16;;;;;;;24.92;17.55;;;;;;;;;;5595089;23;20249;-75
2021/11/01 01:55:42;;;;;;;25.70;16.80;;;;;;;;;;5040991;28;20049;-73
2021/11/01 01:58:09;;;;;;;24.13;17.98;;;;;;;;;;5041503;28;20057;-74
2021/11/01 02:03:04;;;;;;;27.23;18.23;;;;;;;;;;5033312;28;20034;-73
2021/11/01 02:05:37;;;;;;;23.65;16.85;;;;;;;;;;5033686;28;20034;-75
2021/11/01 02:13:16;;;;;;;22.15;16.42;;;;;;;;;;1197014;26;20055;-74
2021/11/01 02:15:45;;;;;;;24.00;16.10;;;;;;;;;;4985475;28;20050;-74
2021/11/01 02:18:12;;;;;;;22.42;16.60;;;;;;;;;;4969660;28;20011;-73
2021/11/01 02:20:39;;;;;;;23.67;17.27;;;;;;;;;;4985720;28;20011;-73
2021/11/01 02:23:14;;;;;;;24.15;16.73;;;;;;;;;;5002340;28;20003;-73
2021/11/01 02:25:44;;;;;;;26.30;18.40;;;;;;;;;;5109645;23;20050;-74
2021/11/01 02:28:12;;;;;;;22.60;17.17;;;;;;;;;;5024701;28;20014;-73
2021/11/01 02:30:39;;;;;;;27.20;18.40;;;;;;;;;;5041433;28;20010;-73
2021/11/01 02:33:09;;;;;;;27.50;18.38;;;;;;;;;;5024583;28;20030;-74
2021/11/01 02:35:36;;;;;;;24.77;18.10;;;;;;;;;;5041251;28;20053;-73
2021/11/01 02:38:04;;;;;;;24.35;17.10;;;;;;;;;;5024332;28;20014;-73
2021/11/01 02:40:31;;;;;;;24.85;18.05;;;;;;;;;;5023256;28;20014;-73
2021/11/01 02:42:58;;;;;;;26.27;18.25;;;;;;;;;;5021378;28;20022;-73
2021/11/01 02:45:24;;;;;;;23.70;17.05;;;;;;;;;;5027747;28;20006;-73
2021/11/01 02:47:51;;;;;;;24.60;17.35;;;;;;;;;;5036561;28;20058;-73
2021/11/01 02:50:17;;;;;;;21.73;17.00;;;;;;;;;;5004492;28;20073;-73
2021/11/01 02:52:44;;;;;;;22.98;17.30;;;;;;;;;;5028087;28;20034;-73
2021/11/01 02:55:11;;;;;;;24.90;17.95;;;;;;;;;;5023023;28;20032;-74
2021/11/01 02:57:38;;;;;;;22.33;17.02;;;;;;;;;;5024052;28;20010;-72
2021/11/01 03:00:05;;;;;;;25.02;17.65;;;;;;;;;;5023879;28;20114;-73
2021/11/01 03:02:31;;;;;;;25.92;16.73;;;;;;;;;;5023608;28;20034;-74
2021/11/01 03:04:57;;;;;;;25.73;16.42;;;;;;;;;;5029016;28;20021;-73
2021/11/01 03:07:24;;;;;;;24.88;17.27;;;;;;;;;;5021069;28;20011;-73
2021/11/01 03:09:50;;;;;;;28.55;17.92;;;;;;;;;;5036670;28;20081;-73
2021/11/01 03:12:17;;;;;;;22.15;17.10;;;;;;;;;;5003015;28;20011;-73
2021/11/01 03:14:48;;;;;;;26.13;18.05;;;;;;;;;;5037337;28;20021;-73
2021/11/01 03:17:18;;;;;;;23.38;16.85;;;;;;;;;;5040611;28;20018;-73
2021/11/01 03:19:47;;;;;;;23.35;16.70;;;;;;;;;;5115191;23;20058;-74
2021/11/01 03:22:13;;;;;;;22.42;17.20;;;;;;;;;;5338282;23;20046;-74
2021/11/01 03:24:41;;;;;;;22.20;16.88;;;;;;;;;;5000794;28;20097;-74
2021/11/01 03:34:54;;;;;;;23.20;17.83;;;;;;;;;;5600685;23;20051;-74
2021/11/01 03:37:21;;;;;;;23.92;17.63;;;;;;;;;;4995511;28;20042;-74
2021/11/01 03:42:24;;;;;;;21.90;17.50;;;;;;;;;;5606822;23;20085;-74
2021/11/01 03:44:55;;;;;;;21.95;17.33;;;;;;;;;;5039938;28;20006;-73
2021/11/01 03:47:24;;;;;;;22.67;17.42;;;;;;;;;;5003078;28;20026;-72
2021/11/01 03:50:01;;;;;;;26.65;17.35;;;;;;;;;;5019104;28;20014;-72
2021/11/01 03:52:33;;;;;;;24.33;17.08;;;;;;;;;;5039805;28;20078;-72
2021/11/01 03:54:59;;;;;;;24.65;17.33;;;;;;;;;;5022771;28;20029;-73
2021/11/01 03:57:25;;;;;;;24.42;17.92;;;;;;;;;;5039758;28;20025;-74
2021/11/01 03:59:52;;;;;;;24.20;17.45;;;;;;;;;;5039051;28;20013;-73
2021/11/01 04:02:20;;;;;;;25.52;17.52;;;;;;;;;;5039403;28;20297;-72
2021/11/01 04:04:48;;;;;;;23.95;17.35;;;;;;;;;;5023061;28;20041;-73
2021/11/01 04:07:14;;;;;;;25.30;17.90;;;;;;;;;;5022813;28;20038;-72
2021/11/01 04:09:41;;;;;;;22.10;17.55;;;;;;;;;;5030233;28;20014;-73
2021/11/01 04:12:09;;;;;;;26.30;18.08;;;;;;;;;;5030427;28;20026;-74
2021/11/01 04:14:40;;;;;;;25.92;18.73;;;;;;;;;;5037880;28;20025;-73
2021/11/01 04:17:22;;;;;;;26.02;18.17;;;;;;;;;;5033078;28;20072;-72
2021/11/01 04:22:36;;;;;;;31.58;20.77;;;;;;;;;;5034266;28;20054;-73
2021/11/01 04:25:02;;;;;;;26.33;18.73;;;;;;;;;;5028022;28;20010;-73
2021/11/01 04:27:28;;;;;;;28.00;18.77;;;;;;;;;;5006811;28;20019;-74
2021/11/01 04:35:01;;;;;;;27.88;19.10;;;;;;;;;;5004931;28;20015;-73
2021/11/01 04:37:28;;;;;;;27.88;20.05;;;;;;;;;;5000052;28;20018;-73
2021/11/01 04:52:55;;;;;;;25.95;19.42;;;;;;;;;;5017694;28;20033;-73
2021/11/01 04:53:28;;;;;;;28.48;20.67;;;;;;;;;;5129322;23;20115;-73
2021/11/01 04:55:55;;;;;;;30.00;20.85;;;;;;;;;;5033119;28;20026;-73
2021/11/01 04:58:23;;;;;;;28.77;20.83;;;;;;;;;;5048395;28;20052;-73
2021/11/01 05:00:50;;;;;;;27.63;18.55;;;;;;;;;;5046117;28;20006;-74
2021/11/01 05:05:48;;;;;;;26.98;19.23;;;;;;;;;;5038675;28;20045;-73
2021/11/01 05:10:57;;;;;;;28.73;20.52;;;;;;;;;;5516517;23;20051;-73
2021/11/01 05:13:28;;;;;;;29.40;21.00;;;;;;;;;;5023108;28;20017;-73
2021/11/01 05:21:36;;;;;;;30.95;22.77;;;;;;;;;;5951820;23;20124;-75
2021/11/01 05:34:28;;;;;;;34.67;22.08;;;;;;;;;;5360254;23;20075;-73
2021/11/01 05:36:54;;;;;;;31.55;21.73;;;;;;;;;;5005861;28;20090;-73
2021/11/01 05:41:56;;;;;;;33.40;22.08;;;;;;;;;;5317356;23;20030;-75
2021/11/01 05:44:22;;;;;;;30.20;21.55;;;;;;;;;;5011954;28;20050;-76
2021/11/01 05:46:50;;;;;;;29.95;22.30;;;;;;;;;;5014314;28;20040;-75
2021/11/01 05:49:19;;;;;;;30.00;22.00;;;;;;;;;;5037035;28;20037;-74
2021/11/01 05:51:45;;;;;;;32.05;22.83;;;;;;;;;;5000819;28;20031;-77
2021/11/01 05:54:17;;;;;;;30.02;21.58;;;;;;;;;;5033839;28;20002;-74
2021/11/01 06:04:47;;;;;;;30.98;22.40;;;;;;;;;;5027932;28;20034;-72
2021/11/01 06:15:54;;;;;;;33.08;22.25;;;;;;;;;;4957047;29;20034;-78
2021/11/01 06:18:35;;;;;;;31.35;21.27;;;;;;;;;;4960625;29;20035;-75
2021/11/01 06:21:22;;;;;;;45.17;30.33;;;;;;;;;;4964497;29;20095;-78
2021/11/01 06:27:14;;;;;;;46.47;33.50;;;;;;;;;;4949645;28;20028;-83
2021/11/01 06:45:56;;;;;;;31.80;20.67;;;;;;;;;;4878991;29;20045;-87
2021/11/01 07:15:09;;;;;;;23.75;17.08;;;;;;;;;;4935727;29;20109;-91
2021/11/01 07:17:41;;;;;;;23.85;17.30;;;;;;;;;;4916653;29;20035;-82
2021/11/01 07:20:21;;;;;;;22.15;16.52;;;;;;;;;;4955237;28;20495;-72
2021/11/01 08:40:09;;;;;;;24.90;17.40;;;;;;;;;;4923495;29;20024;-78
2021/11/01 08:50:44;;;;;;;26.08;16.38;;;;;;;;;;4922060;29;20126;-76
2021/11/01 09:01:43;;;;;;;24.23;17.05;;;;;;;;;;4948000;28;20042;-76
2021/11/01 09:04:37;;;;;;;22.42;15.52;;;;;;;;;;4999784;28;20131;-76
2021/11/01 09:18:49;;;;;;;24.95;16.13;;;;;;;;;;4871925;29;20047;-75
2021/11/01 09:21:34;;;;;;;29.05;16.42;;;;;;;;;;4853667;29;20029;-76
2021/11/01 09:26:46;;;;;;;23.70;16.05;;;;;;;;;;4855073;29;20129;-75
2021/11/01 09:43:00;;;;;;;30.88;19.65;;;;;;;;;;4859428;29;20084;-77
2021/11/01 09:45:29;;;;;;;26.98;17.85;;;;;;;;;;4900468;29;20107;-75
2021/11/01 09:47:57;;;;;;;28.90;18.42;;;;;;;;;;4886325;29;20029;-79
2021/11/01 09:50:24;;;;;;;25.60;17.05;;;;;;;;;;4963982;28;20162;-78
2021/11/01 09:53:05;;;;;;;25.35;17.52;;;;;;;;;;4993657;28;20078;-73
2021/11/01 10:01:13;;;;;;;33.08;17.92;;;;;;;;;;5010974;28;20056;-74
2021/11/01 10:03:53;;;;;;;33.95;19.15;;;;;;;;;;4985750;28;20016;-76
2021/11/01 10:06:27;;;;;;;29.85;18.33;;;;;;;;;;4997227;28;20019;-75
2021/11/01 10:17:56;;;;;;;31.80;17.92;;;;;;;;;;4937628;29;20058;-74
2021/11/01 10:20:22;;;;;;;27.88;17.30;;;;;;;;;;4931007;29;20076;-75
2021/11/01 10:22:48;;;;;;;20.77;14.02;;;;;;;;;;4926544;29;20027;-77
2021/11/01 10:25:19;;;;;;;26.63;14.85;;;;;;;;;;4929929;29;20150;-77
2021/11/01 10:27:52;;;;;;;24.33;14.40;;;;;;;;;;4927698;29;20103;-77
2021/11/01 10:30:22;;;;;;;20.43;14.50;;;;;;;;;;4937480;29;20095;-79
2021/11/01 10:32:49;;;;;;;21.65;13.73;;;;;;;;;;4929652;29;20103;-78
2021/11/01 10:35:21;;;;;;;157.63;25.60;;;;;;;;;;4920515;29;20047;-74
2021/11/01 10:38:35;;;;;;;43.97;17.40;;;;;;;;;;4928469;29;20041;-78
2021/11/01 10:41:39;;;;;;;33.80;18.65;;;;;;;;;;4853002;29;20168;-78
2021/11/01 10:44:38;;;;;;;88.47;19.75;;;;;;;;;;4837660;29;20141;-78
2021/11/01 10:56:23;;;;;;;29.20;15.60;;;;;;;;;;4835794;29;20030;-77
2021/11/01 11:12:32;;;;;;;51.47;14.35;;;;;;;;;;4899041;29;20047;-76
2021/11/01 11:14:59;;;;;;;24.35;12.52;;;;;;;;;;4901840;29;20044;-77
2021/11/01 11:39:32;;;;;;;29.58;14.50;;;;;;;;;;4857149;29;20049;-73
2021/11/01 11:47:43;;;;;;;21.80;14.50;;;;;;;;;;4848907;29;20105;-75
2021/11/01 11:50:10;;;;;;;22.13;14.52;;;;;;;;;;4857194;29;20038;-76
2021/11/01 11:52:36;;;;;;;22.38;13.93;;;;;;;;;;4843472;29;20076;-77
2021/11/01 11:55:12;;;;;;;24.02;13.95;;;;;;;;;;4835775;29;20034;-77
2021/11/01 11:57:38;;;;;;;20.00;12.75;;;;;;;;;;4860375;29;20053;-77
2021/11/01 12:00:10;;;;;;;21.58;13.50;;;;;;;;;;4899550;29;20025;-74
2021/11/01 12:02:40;;;;;;;24.05;14.02;;;;;;;;;;4890740;29;20037;-77
2021/11/01 12:05:15;;;;;;;22.55;14.43;;;;;;;;;;4881504;29;20049;-77
2021/11/01 12:08:01;;;;;;;20.33;14.15;;;;;;;;;;4862222;29;20471;-76
2021/11/01 12:19:06;;;;;;;26.13;15.90;;;;;;;;;;4992805;28;20527;-73
2021/11/01 12:21:54;;;;;;;28.70;15.35;;;;;;;;;;4984000;28;20035;-74
2021/11/01 12:24:25;;;;;;;35.35;15.30;;;;;;;;;;4990670;28;20062;-76
2021/11/01 12:27:09;;;;;;;24.05;15.20;;;;;;;;;;4992814;28;20090;-74
2021/11/01 12:29:41;;;;;;;25.20;16.58;;;;;;;;;;4988169;28;20043;-76
2021/11/01 12:32:13;;;;;;;21.63;15.48;;;;;;;;;;4985703;28;20042;-77
2021/11/01 12:34:50;;;;;;;21.67;15.48;;;;;;;;;;4978698;28;20047;-73
2021/11/01 12:37:21;;;;;;;24.35;15.80;;;;;;;;;;4980069;28;20525;-74
2021/11/01 12:39:56;;;;;;;26.48;18.27;;;;;;;;;;5003663;28;20054;-72
2021/11/01 12:42:34;;;;;;;24.90;17.15;;;;;;;;;;4984925;28;20046;-73
2021/11/01 12:59:11;;;;;;;27.77;19.40;;;;;;;;;;5005320;28;20522;-74
2021/11/01 13:01:39;;;;;;;40.38;25.55;;;;;;;;;;5000167;28;20137;-75
2021/11/01 13:04:26;;;;;;;31.75;21.08;;;;;;;;;;5001633;28;20062;-73
2021/11/01 13:07:04;;;;;;;39.88;25.10;;;;;;;;;;4990957;28;20039;-73
2021/11/01 13:09:44;;;;;;;28.63;19.77;;;;;;;;;;4974475;28;20042;-75
2021/11/01 13:18:39;;;;;;;36.65;25.88;;;;;;;;;;4967226;29;20042;-77
2021/11/01 13:21:22;;;;;;;48.70;34.20;;;;;;;;;;4943364;28;20526;-74
2021/11/01 13:27:15;;;;;;;37.07;24.73;;;;;;;;;;4947243;28;20103;-74
2021/11/01 13:38:28;;;;;;;;;;;;;;;;;;;;;
2021/11/01 13:40:59;;;;;;;30.38;18.40;;;;;;;;;;4968609;29;20429;-73
2021/11/01 13:43:27;;;;;;;31.58;22.00;;;;;;;;;;4969259;29;20054;-74
2021/11/01 13:46:07;;;;;;;39.47;28.00;;;;;;;;;;4969141;29;20054;-76
2021/11/01 13:48:46;;;;;;;35.95;24.63;;;;;;;;;;4962681;29;20537;-73
2021/11/01 13:51:13;;;;;;;29.00;18.95;;;;;;;;;;4978223;28;20570;-74
2021/11/01 13:53:57;;;;;;;28.77;19.80;;;;;;;;;;4987623;28;20027;-74
2021/11/01 13:58:55;;;;;;;31.10;20.60;;;;;;;;;;4988859;28;20110;-73
2021/11/01 14:01:43;;;;;;;33.20;20.67;;;;;;;;;;4992144;28;20034;-76
2021/11/01 14:18:15;;;;;;;31.10;19.00;;;;;;;;;;4984259;28;20169;-73
2021/11/01 14:57:20;;;;;;;63.67;31.40;;;;;;;;;;4940751;29;20099;-74
2021/11/01 15:18:29;;;;;;;42.97;25.42;;;;;;;;;;4909871;29;20052;-78
2021/11/01 15:27:03;;;;;;;40.72;25.77;;;;;;;;;;4862830;29;20037;-77
2021/11/01 15:37:30;;;;;;;38.55;24.42;;;;;;;;;;4881553;29;20060;-75
2021/11/01 15:40:30;;;;;;;37.40;22.98;;;;;;;;;;4882460;29;20048;-76
2021/11/01 16:18:59;;;;;;;50.55;29.30;;;;;;;;;;4988030;28;20130;-73
2021/11/01 16:21:46;;;;;;;54.63;32.85;;;;;;;;;;4986744;28;20045;-77
2021/11/01 16:24:13;;;;;;;57.88;33.28;;;;;;;;;;4982045;28;20026;-75
2021/11/01 16:26:44;;;;;;;61.88;31.58;;;;;;;;;;4984425;28;20033;-77
2021/11/01 16:29:18;;;;;;;53.63;32.17;;;;;;;;;;4998622;28;20031;-76
2021/11/01 16:31:53;;;;;;;50.05;30.45;;;;;;;;;;4977447;28;20042;-76
2021/11/01 16:34:28;;;;;;;50.25;30.83;;;;;;;;;;4993870;28;20500;-74
2021/11/01 16:42:08;;;;;;;43.47;27.38;;;;;;;;;;5117724;28;20024;-87
2021/11/01 16:44:38;;;;;;;36.63;24.80;;;;;;;;;;5120441;28;20490;-76
2021/11/01 16:47:04;;;;;;;33.65;22.65;;;;;;;;;;5125332;28;20019;-77
2021/11/01 16:49:31;;;;;;;34.35;21.83;;;;;;;;;;5126448;27;20023;-82
2021/11/01 16:52:08;;;;;;;31.10;20.48;;;;;;;;;;5124548;28;20047;-90
2021/11/01 16:54:36;;;;;;;29.27;20.73;;;;;;;;;;5123135;28;20040;-87
2021/11/01 16:57:19;;;;;;;29.75;22.45;;;;;;;;;;5119436;28;20035;-86
2021/11/01 17:02:41;;;;;;;31.77;20.67;;;;;;;;;;5125537;28;20035;-74
2021/11/01 17:26:25;;;;;;;32.47;23.00;;;;;;;;;;5104654;28;20174;-75
2021/11/01 18:41:45;;;;;;;40.63;29.40;;;;;;;;;;5013940;28;20141;-80
2021/11/01 18:44:34;;;;;;;39.17;28.45;;;;;;;;;;5016111;28;20042;-77
2021/11/01 18:52:23;;;;;;;46.53;32.88;;;;;;;;;;5014393;28;20040;-76
2021/11/01 18:54:53;;;;;;;47.17;32.47;;;;;;;;;;5007394;28;20167;-76
2021/11/01 18:57:20;;;;;;;47.45;32.25;;;;;;;;;;5011085;28;20116;-75
2021/11/01 18:59:48;;;;;;;47.22;32.83;;;;;;;;;;5017092;28;20080;-77
2021/11/01 19:04:58;;;;;;;41.13;29.77;;;;;;;;;;5012229;28;20040;-76
2021/11/01 19:13:51;;;;;;;48.88;31.15;;;;;;;;;;5023510;28;20156;-76
2021/11/01 20:06:12;;;;;;;45.08;29.95;;;;;;;;;;5030067;28;20101;-81
2021/11/01 21:26:28;;;;;;;37.40;25.73;;;;;;;;;;5014089;28;20186;-75
2021/11/01 21:28:54;;;;;;;35.95;24.88;;;;;;;;;;5014804;28;20055;-76
2021/11/01 21:31:21;;;;;;;38.80;25.65;;;;;;;;;;5006087;28;20034;-76
2021/11/01 21:33:52;;;;;;;37.53;25.27;;;;;;;;;;5016415;28;20421;-76
2021/11/01 21:36:24;;;;;;;37.50;25.20;;;;;;;;;;5016409;28;20149;-76
2021/11/01 21:38:51;;;;;;;45.95;25.35;;;;;;;;;;5017857;28;20030;-75
2021/11/01 21:41:17;;;;;;;35.80;26.00;;;;;;;;;;5018519;28;20042;-75
2021/11/01 21:43:43;;;;;;;36.60;24.25;;;;;;;;;;5018090;28;20026;-75
2021/11/01 21:46:09;;;;;;;35.53;25.60;;;;;;;;;;5028713;28;20411;-75
2021/11/01 21:48:36;;;;;;;39.45;24.30;;;;;;;;;;5049009;28;20130;-74
2021/11/01 21:51:02;;;;;;;41.05;26.27;;;;;;;;;;5050985;28;20064;-75
2021/11/01 21:53:30;;;;;;;34.15;24.40;;;;;;;;;;5046480;28;20039;-74
2021/11/01 21:55:56;;;;;;;39.15;25.60;;;;;;;;;;5032917;28;20046;-76
2021/11/01 21:58:35;;;;;;;34.63;24.10;;;;;;;;;;5052128;28;20104;-75
2021/11/01 22:20:21;;;;;;;33.22;24.45;;;;;;;;;;5056898;28;20052;-76
2021/11/01 22:25:23;;;;;;;32.08;23.95;;;;;;;;;;5048532;28;20033;-75
2021/11/01 22:44:54;;;;;;;36.83;24.08;;;;;;;;;;4968911;28;20035;-76
2021/11/01 22:48:01;;;;;;;37.65;24.55;;;;;;;;;;4968078;28;20047;-77
2021/11/01 22:58:12;;;;;;;36.92;24.65;;;;;;;;;;4973478;28;20512;-75
2021/11/01 23:00:46;;;;;;;37.60;24.40;;;;;;;;;;4973736;28;20042;-74
2021/11/01 23:03:20;;;;;;;33.47;23.60;;;;;;;;;;4975391;28;20117;-75
2021/11/01 23:32:56;;;;;;;34.22;24.33;;;;;;;;;;5083633;28;20050;-76
2021/11/01 23:35:23;;;;;;;33.10;22.75;;;;;;;;;;5095037;28;20040;-75
2021/11/01 23:37:49;;;;;;;30.80;23.33;;;;;;;;;;5077252;28;20454;-75
2021/11/01 23:40:15;;;;;;;33.85;23.73;;;;;;;;;;5094883;28;20016;-75
2021/11/01 23:42:41;;;;;;;30.88;21.77;;;;;;;;;;5076152;28;20028;-76
2021/11/01 23:45:07;;;;;;;33.67;22.63;;;;;;;;;;5098075;28;20055;-75
2021/11/01 23:47:33;;;;;;;35.03;22.50;;;;;;;;;;5101721;28;20074;-75
2021/11/01 23:50:00;;;;;;;37.05;23.63;;;;;;;;;;5099502;28;20155;-76
2021/11/01 23:52:26;;;;;;;30.10;22.40;;;;;;;;;;5092091;28;20029;-76
2021/11/01 23:54:52;;;;;;;30.48;22.58;;;;;;;;;;5092710;28;20020;-76
2021/11/01 23:57:20;;;;;;;32.15;22.35;;;;;;;;;;5089932;28;20042;-76
2021/11/01 23:59:47;;;;;;;37.08;22.33;;;;;;;;;;5088245;28;20499;-76
